Time;durP1;ratioP1;P1;durP2;ratioP2;P2;SDS_P1;SDS_P2;PMS_P1;PMS_P2;Temp;Humidity;BMP_temperature;BMP_pressure;BME280_temperature;BME280_humidity;BME280_pressure;Samples;Min_cycle;Max_cycle;Signal;HPM_P1;HPM_P2
2023/11/17 00:00:58;;;;;;;84.28;79.88;;;12.60;99.90;;;;;;4990459;28;20380;-68
2023/11/17 00:03:26;;;;;;;78.35;74.35;;;12.60;99.90;;;;;;4991957;28;20033;-68
2023/11/17 00:05:54;;;;;;;81.47;76.65;;;12.50;99.90;;;;;;4992732;28;20041;-68
2023/11/17 00:08:20;;;;;;;84.07;79.72;;;12.50;99.90;;;;;;4992075;28;20043;-68
2023/11/17 00:10:46;;;;;;;79.20;74.82;;;12.50;99.90;;;;;;4981737;28;20038;-68
2023/11/17 00:13:13;;;;;;;77.00;73.05;;;12.50;99.90;;;;;;4995157;28;20506;-68
2023/11/17 00:15:39;;;;;;;71.10;67.15;;;12.50;99.90;;;;;;4992560;28;20411;-71
2023/11/17 00:18:05;;;;;;;74.72;70.60;;;12.40;99.90;;;;;;4994743;28;20049;-71
2023/11/17 00:20:31;;;;;;;62.90;59.55;;;12.40;99.90;;;;;;4994619;28;20034;-71
2023/11/17 00:22:57;;;;;;;67.47;63.90;;;12.30;99.90;;;;;;4994814;28;20042;-71
2023/11/17 00:25:24;;;;;;;70.47;66.70;;;12.30;99.90;;;;;;4994167;28;20403;-70
2023/11/17 00:27:50;;;;;;;65.28;61.67;;;12.30;99.90;;;;;;4978497;28;20058;-71
2023/11/17 00:30:17;;;;;;;49.10;46.30;;;12.20;99.90;;;;;;4993543;28;20042;-71
2023/11/17 00:32:43;;;;;;;45.70;43.08;;;12.10;99.90;;;;;;4995370;28;20054;-70
2023/11/17 00:35:09;;;;;;;42.78;40.22;;;12.10;99.90;;;;;;4994354;28;20884;-71
2023/11/17 00:37:38;;;;;;;39.53;37.47;;;12.10;99.90;;;;;;4995002;28;20479;-71
2023/11/17 00:40:08;;;;;;;37.25;35.20;;;12.10;99.90;;;;;;4994625;28;20058;-70
2023/11/17 00:42:35;;;;;;;39.38;37.08;;;12.10;99.90;;;;;;5008099;28;20030;-71
2023/11/17 00:45:01;;;;;;;39.95;37.80;;;12.10;99.90;;;;;;4994946;28;20049;-71
2023/11/17 00:47:27;;;;;;;52.70;49.58;;;12.00;99.90;;;;;;4992306;28;20031;-71
2023/11/17 00:49:53;;;;;;;56.13;52.88;;;11.90;99.90;;;;;;4985772;28;20027;-71
2023/11/17 00:52:19;;;;;;;55.67;52.53;;;11.80;99.90;;;;;;4991663;28;20034;-71
2023/11/17 00:54:47;;;;;;;57.88;54.30;;;11.80;99.90;;;;;;4994742;28;20049;-71
2023/11/17 00:57:13;;;;;;;56.20;52.95;;;11.80;99.90;;;;;;4995281;28;20053;-71
2023/11/17 00:59:39;;;;;;;53.35;50.53;;;11.80;99.90;;;;;;4978441;28;20057;-71
2023/11/17 01:02:05;;;;;;;49.63;46.92;;;11.80;99.90;;;;;;4992409;28;20038;-71
2023/11/17 01:04:32;;;;;;;48.22;45.65;;;11.70;99.90;;;;;;4994222;28;20367;-71
2023/11/17 01:06:58;;;;;;;43.22;40.88;;;11.70;99.90;;;;;;4993585;28;20039;-71
2023/11/17 01:09:25;;;;;;;39.03;36.53;;;11.70;99.90;;;;;;4994757;28;20037;-70
2023/11/17 01:11:52;;;;;;;46.13;43.42;;;11.60;99.90;;;;;;4992010;28;20046;-71
2023/11/17 01:14:18;;;;;;;35.28;33.10;;;11.60;99.90;;;;;;4980221;28;20041;-71
2023/11/17 01:16:44;;;;;;;44.22;41.83;;;11.50;99.90;;;;;;4992723;28;20038;-70
2023/11/17 01:19:10;;;;;;;48.83;45.85;;;11.50;99.90;;;;;;4994523;28;20047;-71
2023/11/17 01:21:36;;;;;;;40.80;38.50;;;11.50;99.90;;;;;;4993958;28;20037;-71
2023/11/17 01:24:03;;;;;;;37.22;34.67;;;11.40;99.90;;;;;;4994814;28;20046;-70
2023/11/17 01:26:29;;;;;;;38.00;35.38;;;11.40;99.90;;;;;;4993854;28;20403;-71
2023/11/17 01:28:55;;;;;;;35.20;32.85;;;11.40;99.90;;;;;;4994268;28;20549;-71
2023/11/17 01:31:22;;;;;;;35.58;33.47;;;11.40;99.90;;;;;;4993220;28;20034;-70
2023/11/17 01:33:49;;;;;;;33.13;31.10;;;11.40;99.90;;;;;;4994778;28;20042;-71
2023/11/17 01:36:17;;;;;;;35.20;33.08;;;11.50;99.90;;;;;;4993494;28;20026;-71
2023/11/17 01:38:44;;;;;;;34.92;32.78;;;11.50;99.90;;;;;;4993944;28;20026;-71
2023/11/17 01:41:10;;;;;;;39.58;37.38;;;11.50;99.90;;;;;;4993157;28;20054;-71
2023/11/17 01:43:36;;;;;;;34.80;32.53;;;11.50;99.90;;;;;;4994409;28;20503;-71
2023/11/17 01:46:03;;;;;;;35.00;32.72;;;11.40;99.90;;;;;;4992961;28;20388;-71
2023/11/17 01:48:29;;;;;;;33.85;31.83;;;11.40;99.90;;;;;;4994156;28;20433;-71
2023/11/17 01:50:55;;;;;;;35.90;33.53;;;11.40;99.90;;;;;;4993296;28;20037;-71
2023/11/17 01:53:21;;;;;;;35.95;33.78;;;11.40;99.90;;;;;;4992731;28;20045;-71
2023/11/17 01:55:47;;;;;;;39.13;36.40;;;11.40;99.90;;;;;;4993629;28;20476;-71
2023/11/17 01:58:15;;;;;;;40.72;37.85;;;11.40;99.90;;;;;;4976874;28;20045;-70
2023/11/17 02:00:41;;;;;;;47.38;44.13;;;11.40;99.90;;;;;;4992319;28;20051;-71
2023/11/17 02:03:08;;;;;;;40.53;37.85;;;11.40;99.90;;;;;;4994028;28;20068;-72
2023/11/17 02:05:34;;;;;;;35.03;32.83;;;11.30;99.90;;;;;;4992946;28;20030;-71
2023/11/17 02:08:20;;;;;;;31.50;29.40;;;11.30;99.90;;;;;;4992162;28;20472;-71
2023/11/17 02:11:05;;;;;;;32.08;29.90;;;11.30;99.90;;;;;;4991600;28;20026;-71
2023/11/17 02:13:55;;;;;;;32.63;30.55;;;11.30;99.90;;;;;;4992055;28;20035;-72
2023/11/17 02:16:24;;;;;;;34.03;31.70;;;11.40;99.90;;;;;;4988365;28;20034;-71
2023/11/17 02:18:54;;;;;;;32.60;30.42;;;11.40;99.90;;;;;;4987364;28;20042;-69
2023/11/17 02:21:28;;;;;;;34.30;32.13;;;11.30;99.90;;;;;;4989076;28;20070;-68
2023/11/17 02:23:54;;;;;;;35.90;33.42;;;11.30;99.90;;;;;;4989776;28;20045;-68
2023/11/17 02:26:21;;;;;;;35.90;33.60;;;11.30;99.90;;;;;;4987815;28;20033;-68
2023/11/17 02:29:00;;;;;;;39.47;36.95;;;11.30;99.90;;;;;;4987149;28;20026;-68
2023/11/17 02:31:32;;;;;;;39.00;36.03;;;11.40;99.90;;;;;;4983838;28;20411;-68
2023/11/17 02:34:04;;;;;;;40.92;38.47;;;11.40;99.90;;;;;;4991384;28;20026;-68
2023/11/17 02:36:32;;;;;;;44.97;42.10;;;11.40;99.90;;;;;;4991150;28;20034;-68
2023/11/17 02:39:12;;;;;;;42.60;39.72;;;11.40;99.90;;;;;;4986471;28;20038;-68
2023/11/17 02:41:42;;;;;;;48.60;45.25;;;11.40;99.90;;;;;;4985172;28;20077;-68
2023/11/17 02:44:12;;;;;;;44.67;41.90;;;11.40;99.90;;;;;;4992670;28;20496;-68
2023/11/17 02:46:44;;;;;;;44.65;42.08;;;11.40;99.90;;;;;;4991589;28;20045;-68
2023/11/17 02:49:28;;;;;;;48.80;45.95;;;11.50;99.90;;;;;;4991102;28;20092;-68
2023/11/17 02:51:55;;;;;;;45.03;42.22;;;11.50;99.90;;;;;;4987497;28;20479;-68
2023/11/17 02:54:22;;;;;;;40.30;37.60;;;11.50;99.90;;;;;;4991342;28;20039;-68
2023/11/17 02:56:49;;;;;;;42.40;39.83;;;11.50;99.90;;;;;;4978381;28;20038;-68
2023/11/17 02:59:18;;;;;;;41.22;38.72;;;11.50;99.90;;;;;;4978536;28;20042;-68
2023/11/17 03:01:44;;;;;;;48.95;45.97;;;11.50;99.90;;;;;;4991414;28;20035;-68
2023/11/17 03:04:16;;;;;;;50.75;47.65;;;11.60;99.90;;;;;;4991267;28;22476;-68
2023/11/17 03:06:45;;;;;;;49.75;46.65;;;11.60;99.90;;;;;;4992522;28;20037;-68
2023/11/17 03:09:15;;;;;;;44.70;41.90;;;11.50;99.90;;;;;;4992143;28;20042;-68
2023/11/17 03:11:42;;;;;;;46.63;43.60;;;11.50;99.90;;;;;;4990740;28;20038;-68
2023/11/17 03:14:09;;;;;;;43.90;41.42;;;11.50;99.90;;;;;;4991092;28;20034;-68
2023/11/17 03:16:38;;;;;;;42.15;39.67;;;11.50;99.90;;;;;;4990628;28;20034;-68
2023/11/17 03:19:10;;;;;;;40.65;38.08;;;11.50;99.90;;;;;;4990539;28;20038;-68
2023/11/17 03:21:42;;;;;;;37.47;35.03;;;11.60;99.90;;;;;;4991605;28;20039;-72
2023/11/17 03:24:17;;;;;;;42.30;39.50;;;11.60;99.90;;;;;;4990894;28;20518;-72
2023/11/17 03:26:47;;;;;;;38.65;36.42;;;11.60;99.90;;;;;;4991033;28;20042;-72
2023/11/17 03:29:17;;;;;;;41.10;38.55;;;11.60;99.90;;;;;;4990595;28;20038;-72
2023/11/17 03:31:52;;;;;;;47.17;43.97;;;11.60;99.90;;;;;;4989907;28;20058;-72
2023/11/17 03:34:31;;;;;;;46.10;43.28;;;11.70;99.90;;;;;;4991685;28;20320;-72
2023/11/17 03:37:03;;;;;;;40.47;37.97;;;11.70;99.90;;;;;;4975339;28;20049;-72
2023/11/17 03:39:41;;;;;;;40.08;37.67;;;11.60;99.90;;;;;;4992488;28;20494;-72
2023/11/17 03:42:10;;;;;;;36.15;33.83;;;11.60;99.90;;;;;;4993849;28;20046;-72
2023/11/17 03:44:36;;;;;;;37.33;35.13;;;11.60;99.90;;;;;;4996234;28;20030;-72
2023/11/17 03:47:06;;;;;;;44.20;41.50;;;11.60;99.90;;;;;;4995492;28;20050;-72
2023/11/17 03:49:35;;;;;;;41.78;39.17;;;11.60;99.90;;;;;;4995125;28;20026;-72
2023/11/17 03:52:04;;;;;;;41.97;39.50;;;11.60;99.90;;;;;;4995478;28;20034;-72
2023/11/17 03:54:32;;;;;;;46.10;43.28;;;11.70;99.90;;;;;;4988436;28;20027;-72
2023/11/17 03:57:00;;;;;;;49.50;46.67;;;11.70;99.90;;;;;;4994077;28;20026;-72
2023/11/17 03:59:28;;;;;;;46.72;44.13;;;11.70;99.90;;;;;;4993919;28;20026;-72
2023/11/17 04:01:54;;;;;;;53.95;50.63;;;11.70;99.90;;;;;;4993458;28;20038;-72
2023/11/17 04:04:20;;;;;;;60.08;56.70;;;11.70;99.90;;;;;;4994536;28;20483;-72
2023/11/17 04:06:49;;;;;;;61.38;57.80;;;11.70;99.90;;;;;;4993766;28;20037;-72
2023/11/17 04:09:16;;;;;;;55.15;52.10;;;11.70;99.90;;;;;;4994297;28;20395;-72
2023/11/17 04:11:43;;;;;;;58.83;55.33;;;11.70;99.90;;;;;;4994550;28;20034;-72
2023/11/17 04:14:09;;;;;;;63.00;59.22;;;11.70;99.90;;;;;;4994545;28;20038;-72
2023/11/17 04:16:35;;;;;;;63.40;59.90;;;11.70;99.90;;;;;;4992954;28;20407;-72
2023/11/17 04:19:03;;;;;;;65.15;61.50;;;11.70;99.90;;;;;;4995726;28;20378;-72
2023/11/17 04:21:29;;;;;;;67.50;63.60;;;11.70;99.90;;;;;;4992663;28;20038;-72
2023/11/17 04:23:55;;;;;;;69.85;65.70;;;11.70;99.90;;;;;;4992451;28;20372;-72
2023/11/17 04:26:21;;;;;;;60.55;56.92;;;11.70;99.90;;;;;;4993296;28;20038;-71
2023/11/17 04:28:47;;;;;;;54.28;51.25;;;11.60;99.90;;;;;;4994474;28;20034;-71
2023/11/17 04:31:14;;;;;;;59.38;56.00;;;11.50;99.90;;;;;;4994490;28;20053;-70
2023/11/17 04:33:40;;;;;;;54.35;51.05;;;11.50;99.90;;;;;;4994809;28;20026;-71
2023/11/17 04:36:10;;;;;;;69.63;65.85;;;11.50;99.90;;;;;;4994122;28;20030;-70
2023/11/17 04:38:38;;;;;;;56.65;53.33;;;11.60;99.90;;;;;;4992749;28;20038;-71
2023/11/17 04:41:04;;;;;;;52.47;49.63;;;11.50;99.90;;;;;;4988803;28;20070;-70
2023/11/17 04:43:30;;;;;;;61.30;57.75;;;11.50;99.90;;;;;;4983209;28;20053;-70
2023/11/17 04:45:56;;;;;;;57.15;53.53;;;11.50;99.90;;;;;;4994570;28;20398;-71
2023/11/17 04:48:23;;;;;;;56.83;53.35;;;11.40;99.90;;;;;;4993308;28;20037;-71
2023/11/17 04:50:49;;;;;;;51.63;48.63;;;11.40;99.90;;;;;;4994651;28;20041;-70
2023/11/17 04:53:15;;;;;;;51.22;48.05;;;11.40;99.90;;;;;;4995059;28;20026;-71
2023/11/17 04:55:44;;;;;;;51.60;48.53;;;11.40;99.90;;;;;;4996700;28;20037;-70
2023/11/17 04:58:11;;;;;;;52.35;49.17;;;11.30;99.90;;;;;;5014216;28;20475;-70
2023/11/17 05:00:38;;;;;;;48.53;45.85;;;11.30;99.90;;;;;;4998552;28;20065;-71
2023/11/17 05:03:04;;;;;;;54.53;51.63;;;11.20;99.90;;;;;;5002967;28;20038;-70
2023/11/17 05:05:30;;;;;;;50.17;47.28;;;11.10;99.90;;;;;;4996022;28;20488;-70
2023/11/17 05:07:59;;;;;;;57.67;54.45;;;11.10;99.90;;;;;;4996556;28;20046;-71
2023/11/17 05:10:26;;;;;;;48.20;45.42;;;11.10;99.90;;;;;;4994253;28;20395;-71
2023/11/17 05:12:53;;;;;;;46.63;43.72;;;11.00;99.90;;;;;;4995228;28;20391;-71
2023/11/17 05:15:23;;;;;;;46.17;42.92;;;11.00;99.90;;;;;;4993626;28;20061;-71
2023/11/17 05:17:50;;;;;;;44.63;41.83;;;11.00;99.90;;;;;;5009841;28;20038;-70
2023/11/17 05:20:20;;;;;;;39.88;37.58;;;11.00;99.90;;;;;;4993533;28;20054;-70
2023/11/17 05:22:47;;;;;;;40.95;38.30;;;10.90;99.90;;;;;;4993580;28;20037;-70
2023/11/17 05:25:14;;;;;;;38.88;36.40;;;10.90;99.90;;;;;;4992915;28;20407;-70
2023/11/17 05:27:40;;;;;;;41.28;38.88;;;10.80;99.90;;;;;;4994053;28;20030;-71
2023/11/17 05:30:07;;;;;;;45.38;42.67;;;10.80;99.90;;;;;;4993202;28;20519;-70
2023/11/17 05:32:34;;;;;;;37.35;35.13;;;10.80;99.90;;;;;;5013308;28;20041;-71
2023/11/17 05:35:00;;;;;;;41.05;38.35;;;10.80;99.90;;;;;;5008101;28;20027;-71
2023/11/17 05:37:27;;;;;;;44.60;41.78;;;10.70;99.90;;;;;;4993905;28;20037;-71
2023/11/17 05:39:53;;;;;;;46.22;43.55;;;10.70;99.90;;;;;;4994735;28;20053;-71
2023/11/17 05:42:19;;;;;;;46.78;43.83;;;10.60;99.90;;;;;;4992882;28;20383;-68
2023/11/17 05:44:45;;;;;;;37.35;34.63;;;10.60;99.90;;;;;;4992823;28;20049;-67
2023/11/17 05:47:12;;;;;;;40.05;37.63;;;10.60;99.90;;;;;;4993285;28;20035;-67
2023/11/17 05:49:43;;;;;;;39.92;37.45;;;10.60;99.90;;;;;;4994257;28;20062;-67
2023/11/17 05:52:12;;;;;;;41.22;38.75;;;10.50;99.90;;;;;;4993967;28;20042;-67
2023/11/17 05:54:45;;;;;;;39.70;37.08;;;10.50;99.90;;;;;;4999973;28;20036;-67
2023/11/17 05:57:11;;;;;;;41.33;38.60;;;10.60;99.90;;;;;;4994103;28;20487;-68
2023/11/17 05:59:38;;;;;;;36.90;34.63;;;10.60;99.90;;;;;;4994829;28;20031;-68
2023/11/17 06:02:05;;;;;;;37.67;35.10;;;10.50;99.90;;;;;;4991588;28;20042;-67
2023/11/17 06:04:31;;;;;;;43.03;40.47;;;10.50;99.90;;;;;;4994128;28;20042;-68
2023/11/17 06:06:57;;;;;;;48.05;45.40;;;10.50;99.90;;;;;;4993349;28;20022;-67
2023/11/17 06:09:23;;;;;;;48.58;45.72;;;10.40;99.90;;;;;;4993715;28;20394;-68
2023/11/17 06:11:49;;;;;;;48.28;45.25;;;10.40;99.90;;;;;;5006918;28;20030;-67
2023/11/17 06:14:17;;;;;;;44.40;41.85;;;10.40;99.90;;;;;;4999262;28;20411;-68
2023/11/17 06:16:43;;;;;;;45.60;42.30;;;10.40;99.90;;;;;;4992561;28;20026;-67
2023/11/17 06:19:12;;;;;;;43.35;40.75;;;10.40;99.90;;;;;;4993573;28;20038;-67
2023/11/17 06:21:38;;;;;;;36.63;34.45;;;10.40;99.90;;;;;;4991641;28;20057;-67
2023/11/17 06:24:04;;;;;;;40.92;38.42;;;10.30;99.90;;;;;;5004871;28;20042;-68
2023/11/17 06:26:30;;;;;;;42.40;39.85;;;10.30;99.90;;;;;;5012467;28;20037;-68
2023/11/17 06:28:57;;;;;;;40.65;38.28;;;10.30;99.90;;;;;;4993680;28;20395;-67
2023/11/17 06:31:28;;;;;;;36.42;34.10;;;10.30;99.90;;;;;;4997329;28;20034;-67
2023/11/17 06:33:54;;;;;;;;;;;10.20;99.90;;;;;;5012922;28;20048;-67
2023/11/17 06:36:21;;;;;;;36.53;34.30;;;10.20;99.90;;;;;;5012028;28;20370;-68
2023/11/17 06:38:47;;;;;;;37.90;35.15;;;10.10;99.90;;;;;;5012823;28;20494;-67
2023/11/17 06:41:14;;;;;;;39.10;36.47;;;10.10;99.90;;;;;;4993270;28;20045;-68
2023/11/17 06:43:41;;;;;;;34.95;32.88;;;10.10;99.90;;;;;;4998129;28;20048;-67
2023/11/17 06:46:07;;;;;;;44.92;42.15;;;10.00;99.90;;;;;;5011579;28;20042;-67
2023/11/17 06:48:39;;;;;;;54.55;51.03;;;10.00;99.90;;;;;;5012222;28;20567;-67
2023/11/17 06:51:05;;;;;;;59.15;55.38;;;10.00;99.90;;;;;;5011204;28;20390;-67
2023/11/17 06:53:32;;;;;;;60.28;56.63;;;10.00;99.90;;;;;;4993019;28;20041;-67
2023/11/17 06:56:02;;;;;;;72.03;67.78;;;10.00;99.90;;;;;;4993621;28;20369;-67
2023/11/17 06:58:28;;;;;;;75.13;71.03;;;9.90;99.90;;;;;;4992863;28;20022;-67
2023/11/17 07:00:54;;;;;;;69.60;64.93;;;10.00;99.90;;;;;;4992532;28;20065;-67
2023/11/17 07:03:21;;;;;;;46.80;43.83;;;10.00;99.90;;;;;;5011858;28;20394;-67
2023/11/17 07:05:51;;;;;;;58.45;55.03;;;9.90;99.90;;;;;;5012747;28;20049;-69
2023/11/17 07:08:18;;;;;;;79.43;75.03;;;9.90;99.90;;;;;;5001065;28;20082;-67
2023/11/17 07:10:44;;;;;;;61.38;57.70;;;10.00;99.90;;;;;;4992425;28;20037;-67
2023/11/17 07:13:10;;;;;;;76.25;71.75;;;9.90;99.90;;;;;;4992916;28;20054;-68
2023/11/17 07:15:39;;;;;;;54.17;50.92;;;9.90;99.90;;;;;;4992169;28;20035;-67
2023/11/17 07:18:06;;;;;;;68.38;64.00;;;9.90;99.90;;;;;;4996974;28;20050;-71
2023/11/17 07:20:33;;;;;;;60.72;56.60;;;9.90;99.90;;;;;;4995389;28;20039;-71
2023/11/17 07:22:59;;;;;;;70.80;66.63;;;9.80;99.90;;;;;;4985861;28;20506;-70
2023/11/17 07:25:26;;;;;;;60.60;57.05;;;9.90;99.90;;;;;;4994228;28;20042;-70
2023/11/17 07:27:55;;;;;;;61.95;58.10;;;9.90;99.90;;;;;;4988590;28;20504;-70
2023/11/17 07:30:23;;;;;;;53.88;50.03;;;9.80;99.90;;;;;;4990728;28;20045;-70
2023/11/17 07:32:49;;;;;;;49.60;46.42;;;9.90;99.90;;;;;;4996785;28;20503;-70
2023/11/17 07:35:15;;;;;;;48.65;45.03;;;9.90;99.90;;;;;;4996764;28;20041;-70
2023/11/17 07:37:43;;;;;;;46.97;43.90;;;9.90;99.90;;;;;;4997081;28;20034;-70
2023/11/17 07:40:09;;;;;;;45.40;42.80;;;9.90;99.90;;;;;;4996288;28;20507;-70
2023/11/17 07:42:35;;;;;;;46.22;43.67;;;9.90;99.90;;;;;;4996713;28;20033;-71
2023/11/17 07:45:03;;;;;;;39.38;36.70;;;9.90;99.90;;;;;;4994171;28;20046;-71
2023/11/17 07:47:30;;;;;;;37.38;35.22;;;9.90;99.90;;;;;;4980868;28;20051;-70
2023/11/17 07:49:56;;;;;;;43.83;41.35;;;9.90;99.90;;;;;;4993713;28;20046;-71
2023/11/17 07:52:25;;;;;;;40.03;37.20;;;9.90;99.90;;;;;;4992159;28;20037;-70
2023/11/17 07:54:51;;;;;;;40.35;37.88;;;9.90;99.90;;;;;;4976880;28;20037;-71
2023/11/17 07:57:20;;;;;;;38.17;35.85;;;9.90;99.90;;;;;;4993440;28;20050;-70
2023/11/17 07:59:46;;;;;;;37.08;34.67;;;9.90;99.90;;;;;;4993692;28;20542;-72
2023/11/17 08:02:12;;;;;;;36.67;34.47;;;10.00;99.90;;;;;;4993366;28;20046;-73
2023/11/17 08:04:38;;;;;;;38.50;36.10;;;10.00;99.90;;;;;;4994696;28;20022;-73
2023/11/17 08:07:05;;;;;;;39.50;37.13;;;10.00;99.90;;;;;;4994879;28;20483;-72
2023/11/17 08:09:33;;;;;;;37.15;34.47;;;10.10;99.90;;;;;;4986554;28;20035;-73
2023/11/17 08:12:02;;;;;;;37.90;35.15;;;10.10;99.90;;;;;;4995572;28;20375;-73
2023/11/17 08:14:28;;;;;;;37.78;35.42;;;10.10;99.90;;;;;;4995359;28;20033;-73
2023/11/17 08:16:54;;;;;;;40.40;37.30;;;10.20;99.90;;;;;;4994692;28;20384;-73
2023/11/17 08:19:20;;;;;;;46.30;43.35;;;10.20;99.90;;;;;;4991465;28;20046;-73
2023/11/17 08:21:47;;;;;;;50.53;47.53;;;10.20;99.90;;;;;;4988966;28;20487;-73
2023/11/17 08:24:14;;;;;;;46.88;43.65;;;10.20;99.90;;;;;;4996009;28;20514;-67
2023/11/17 08:26:42;;;;;;;45.40;42.15;;;10.30;99.90;;;;;;4999798;28;20038;-68
2023/11/17 08:29:08;;;;;;;52.55;49.33;;;10.40;99.90;;;;;;5015192;28;20045;-67
2023/11/17 08:31:34;;;;;;;56.17;52.90;;;10.40;99.90;;;;;;5005715;28;20053;-67
2023/11/17 08:34:00;;;;;;;57.67;53.88;;;10.50;99.90;;;;;;4995491;28;20034;-68
2023/11/17 08:36:28;;;;;;;51.28;48.15;;;10.50;99.90;;;;;;4995229;28;20058;-67
2023/11/17 08:38:56;;;;;;;50.35;47.30;;;10.60;99.90;;;;;;4976294;28;20038;-67
2023/11/17 08:41:23;;;;;;;48.95;45.45;;;10.70;99.90;;;;;;4993701;28;20050;-67
2023/11/17 08:43:51;;;;;;;48.58;45.42;;;10.70;99.90;;;;;;4982827;28;20111;-67
2023/11/17 08:46:18;;;;;;;40.65;38.00;;;10.70;99.90;;;;;;4993382;28;20046;-67
2023/11/17 08:48:44;;;;;;;40.92;38.22;;;10.70;99.90;;;;;;4994937;28;20034;-67
2023/11/17 08:51:10;;;;;;;49.70;44.53;;;10.70;99.90;;;;;;4994845;28;20049;-67
2023/11/17 08:53:37;;;;;;;41.92;39.45;;;10.70;99.90;;;;;;5008201;28;20060;-67
2023/11/17 08:56:03;;;;;;;39.60;37.22;;;10.80;99.90;;;;;;5013775;28;20053;-67
2023/11/17 08:58:29;;;;;;;40.22;37.80;;;10.80;99.90;;;;;;5014547;28;20410;-67
2023/11/17 09:00:57;;;;;;;40.75;38.15;;;10.90;99.90;;;;;;5013637;28;20042;-68
2023/11/17 09:03:23;;;;;;;52.00;48.72;;;10.90;99.90;;;;;;5001450;28;20118;-67
2023/11/17 09:05:50;;;;;;;36.85;33.75;;;11.00;99.90;;;;;;4992841;28;20042;-67
2023/11/17 09:08:16;;;;;;;32.88;30.92;;;11.10;99.90;;;;;;4994574;28;20034;-69
2023/11/17 09:10:42;;;;;;;82.88;78.05;;;11.20;99.90;;;;;;4997927;28;20050;-68
2023/11/17 09:13:09;;;;;;;46.25;43.13;;;11.30;99.90;;;;;;4999055;28;20054;-67
2023/11/17 09:15:38;;;;;;;33.15;30.90;;;11.40;99.90;;;;;;4977753;28;20526;-68
2023/11/17 09:18:04;;;;;;;33.35;30.90;;;11.40;99.90;;;;;;4983659;28;20043;-68
2023/11/17 09:20:30;;;;;;;42.00;39.13;;;11.50;99.90;;;;;;4990600;28;20051;-68
2023/11/17 09:22:56;;;;;;;33.13;30.77;;;11.50;99.90;;;;;;4997356;28;20042;-68
2023/11/17 09:25:23;;;;;;;24.50;22.55;;;11.60;99.90;;;;;;4992776;28;20104;-67
2023/11/17 09:27:52;;;;;;;20.98;19.42;;;11.70;99.90;;;;;;4974573;28;20057;-72
2023/11/17 09:30:19;;;;;;;22.73;20.98;;;11.70;99.90;;;;;;4986704;28;20042;-70
2023/11/17 09:32:48;;;;;;;25.60;23.92;;;11.80;99.90;;;;;;4987316;28;20034;-71
2023/11/17 09:35:15;;;;;;;26.33;24.02;;;11.90;99.90;;;;;;4990707;28;20491;-72
2023/11/17 09:38:09;;;;;;;26.65;24.55;;;12.00;99.90;;;;;;4989697;28;20046;-72
2023/11/17 09:40:36;;;;;;;53.28;50.03;;;12.00;99.90;;;;;;4993177;28;20041;-72
2023/11/17 09:43:11;;;;;;;88.53;83.93;;;12.10;99.90;;;;;;4999590;28;20060;-72
2023/11/17 09:45:37;;;;;;;74.80;70.75;;;12.00;99.90;;;;;;5012398;28;20032;-72
2023/11/17 09:48:05;;;;;;;76.20;71.85;;;12.10;99.90;;;;;;4994352;28;20482;-71
2023/11/17 09:50:31;;;;;;;65.85;62.10;;;12.20;99.90;;;;;;4983162;28;20047;-72
2023/11/17 09:52:59;;;;;;;68.50;64.35;;;12.20;99.90;;;;;;4998846;28;20045;-72
2023/11/17 09:55:28;;;;;;;62.28;58.65;;;12.30;99.90;;;;;;5012370;28;20049;-72
2023/11/17 09:57:55;;;;;;;50.28;47.08;;;12.30;99.90;;;;;;4997102;28;20050;-72
2023/11/17 10:00:22;;;;;;;56.85;53.40;;;12.40;99.90;;;;;;4992673;28;20046;-72
2023/11/17 10:02:50;;;;;;;76.63;72.20;;;12.50;99.90;;;;;;4995293;28;20058;-71
2023/11/17 10:05:17;;;;;;;65.85;61.80;;;12.50;99.90;;;;;;4992076;28;20042;-72
2023/11/17 10:07:47;;;;;;;34.67;32.30;;;12.60;99.90;;;;;;4992440;28;20415;-72
2023/11/17 10:10:14;;;;;;;63.38;59.65;;;12.70;99.90;;;;;;4990903;28;20031;-70
2023/11/17 10:12:43;;;;;;;81.97;77.28;;;12.80;99.90;;;;;;4977743;28;20050;-72
2023/11/17 10:15:12;;;;;;;61.00;57.55;;;12.90;99.90;;;;;;4990459;28;20049;-72
2023/11/17 10:17:40;;;;;;;66.80;62.50;;;12.90;99.90;;;;;;4967601;28;20046;-71
2023/11/17 10:20:13;;;;;;;58.78;54.90;;;12.90;99.90;;;;;;4972841;28;20042;-71
2023/11/17 10:22:42;;;;;;;64.18;60.15;;;13.00;99.90;;;;;;4994659;28;20519;-72
2023/11/17 10:25:13;;;;;;;86.60;81.55;;;13.00;99.90;;;;;;4975526;28;20035;-72
2023/11/17 10:27:40;;;;;;;;;;;13.10;99.90;;;;;;4973604;28;20503;-71
2023/11/17 10:30:07;;;;;;;58.40;55.03;;;13.00;99.90;;;;;;4978677;28;20274;-72
2023/11/17 10:32:36;;;;;;;78.93;74.38;;;13.00;99.90;;;;;;4992611;28;20515;-72
2023/11/17 10:35:23;;;;;;;99.05;93.50;;;13.10;99.90;;;;;;4991313;28;20380;-72
2023/11/17 10:37:54;;;;;;;105.65;99.70;;;13.20;99.90;;;;;;4993158;28;20399;-72
2023/11/17 10:40:28;;;;;;;103.97;98.22;;;13.20;99.90;;;;;;4993670;28;20031;-72
2023/11/17 10:43:26;;;;;;;116.55;110.32;;;13.20;99.90;;;;;;4982163;28;20058;-72
2023/11/17 10:45:57;;;;;;;95.28;90.18;;;13.30;99.90;;;;;;4956116;28;20153;-66
2023/11/17 10:48:23;;;;;;;120.97;114.50;;;13.30;99.90;;;;;;4954967;28;20429;-66
2023/11/17 10:50:51;;;;;;;117.38;111.45;;;13.40;99.90;;;;;;4969037;28;20039;-72
2023/11/17 10:53:19;;;;;;;113.45;107.72;;;13.40;99.90;;;;;;4955232;28;20089;-72
2023/11/17 10:55:47;;;;;;;125.95;119.10;;;13.40;99.90;;;;;;4954907;28;20412;-74
2023/11/17 10:58:15;;;;;;;140.30;133.25;;;13.50;99.90;;;;;;4971509;28;20074;-73
2023/11/17 11:00:45;;;;;;;116.88;110.80;;;13.60;99.90;;;;;;4957868;28;20046;-74
2023/11/17 11:03:13;;;;;;;145.38;137.45;;;13.60;99.90;;;;;;4955189;28;20047;-74
2023/11/17 11:05:48;;;;;;;151.77;143.70;;;13.70;99.90;;;;;;4939206;28;20042;-74
2023/11/17 11:08:22;;;;;;;143.57;136.15;;;13.60;99.90;;;;;;4954576;28;20056;-71
2023/11/17 11:10:53;;;;;;;160.45;152.02;;;13.60;99.90;;;;;;4956783;28;20043;-71
2023/11/17 11:13:22;;;;;;;;;;;13.70;99.90;;;;;;4955729;28;20492;-72
2023/11/17 11:16:00;;;;;;;177.95;168.60;;;13.70;99.90;;;;;;4954400;28;19922;-71
2023/11/17 11:18:27;;;;;;;144.60;136.93;;;13.70;99.90;;;;;;4955503;28;20038;-71
2023/11/17 11:20:54;;;;;;;164.02;155.52;;;13.80;99.90;;;;;;4959133;28;20050;-68
2023/11/17 11:23:20;;;;;;;171.02;161.98;;;13.80;99.90;;;;;;4991428;28;20387;-68
2023/11/17 11:25:47;;;;;;;157.27;149.48;;;13.80;99.90;;;;;;4995741;28;20038;-68
2023/11/17 11:28:13;;;;;;;166.18;157.27;;;13.80;99.90;;;;;;4990192;28;20038;-68
2023/11/17 11:30:39;;;;;;;137.68;130.60;;;13.70;99.90;;;;;;4973076;28;20045;-68
2023/11/17 11:33:08;;;;;;;171.55;162.73;;;13.80;99.90;;;;;;4994336;28;20039;-66
2023/11/17 11:35:34;;;;;;;185.05;175.48;;;13.80;99.90;;;;;;4991674;28;20025;-68
2023/11/17 11:38:00;;;;;;;198.25;188.07;;;13.80;99.90;;;;;;5005292;28;20065;-68
2023/11/17 11:40:26;;;;;;;123.78;116.93;;;13.90;99.90;;;;;;4990673;28;20031;-67
2023/11/17 11:42:53;;;;;;;165.68;157.18;;;14.00;99.90;;;;;;4990827;28;20043;-68
2023/11/17 11:45:20;;;;;;;174.02;165.35;;;14.10;99.90;;;;;;4990014;28;20041;-68
2023/11/17 11:47:52;;;;;;;165.85;157.50;;;14.20;99.90;;;;;;4990705;28;20379;-70
2023/11/17 11:50:20;;;;;;;179.00;169.82;;;14.20;99.90;;;;;;4991339;28;20038;-67
2023/11/17 11:53:25;;;;;;;174.10;165.00;;;14.30;99.90;;;;;;4990953;28;20034;-67
2023/11/17 11:55:53;;;;;;;164.60;156.05;;;14.40;99.90;;;;;;4991856;28;20030;-69
2023/11/17 11:58:22;;;;;;;140.77;133.57;;;14.40;99.90;;;;;;4992194;28;20034;-69
2023/11/17 12:00:54;;;;;;;199.48;189.27;;;14.30;99.90;;;;;;4990196;28;20026;-69
2023/11/17 12:03:21;;;;;;;217.40;206.27;;;14.30;99.90;;;;;;4978842;28;20046;-68
2023/11/17 12:05:48;;;;;;;151.40;143.60;;;14.30;99.90;;;;;;4993784;28;20024;-68
2023/11/17 12:08:27;;;;;;;178.45;169.48;;;14.20;99.90;;;;;;4994243;28;20042;-68
2023/11/17 12:10:56;;;;;;;190.40;180.38;;;14.10;99.90;;;;;;5000537;28;20037;-68
2023/11/17 12:13:42;;;;;;;177.65;168.70;;;14.20;99.90;;;;;;4966105;28;20034;-67
2023/11/17 12:16:12;;;;;;;182.00;173.07;;;14.30;99.90;;;;;;4986984;28;20031;-67
2023/11/17 12:18:42;;;;;;;162.52;154.30;;;14.40;99.90;;;;;;4983406;28;20491;-72
2023/11/17 12:21:17;;;;;;;158.70;150.45;;;14.50;99.90;;;;;;4982843;28;20414;-72
2023/11/17 12:23:49;;;;;;;177.20;168.35;;;14.60;99.90;;;;;;4984114;28;20829;-73
2023/11/17 12:26:19;;;;;;;167.02;158.38;;;14.70;99.90;;;;;;4994594;28;20035;-73
2023/11/17 12:28:47;;;;;;;218.57;207.35;;;14.50;99.90;;;;;;4994268;28;20041;-73
2023/11/17 12:31:14;;;;;;;196.38;186.27;;;14.50;99.90;;;;;;4989401;28;20406;-74